Time;durP1;ratioP1;P1;durP2;ratioP2;P2;SDS_P1;SDS_P2;PMS_P1;PMS_P2;Temp;Humidity;BMP_temperature;BMP_pressure;BME280_temperature;BME280_humidity;BME280_pressure;Samples;Min_cycle;Max_cycle;Signal;HPM_P1;HPM_P2
2023/05/02 00:01:27;;;;;;;7.23;6.20;;;;;13.50;96765.00;;;;5027700;28;20205;-70
2023/05/02 00:04:16;;;;;;;11.43;7.03;;;;;13.70;96757.00;;;;5030101;28;20217;-70
2023/05/02 00:07:05;;;;;;;7.00;6.30;;;;;13.60;96759.00;;;;5034277;28;20231;-70
2023/05/02 00:09:54;;;;;;;8.53;5.43;;;;;13.60;96763.00;;;;5037267;28;20575;-70
2023/05/02 00:12:45;;;;;;;8.67;5.47;;;;;13.40;96759.00;;;;5028511;28;20223;-70
2023/05/02 00:15:34;;;;;;;8.13;5.27;;;;;13.40;96761.00;;;;5033498;28;20206;-70
2023/05/02 00:18:24;;;;;;;7.30;5.13;;;;;13.40;96761.00;;;;5026684;28;20708;-70
2023/05/02 00:21:13;;;;;;;4.80;4.27;;;;;13.20;96754.00;;;;5024742;28;20676;-71
2023/05/02 00:24:01;;;;;;;5.57;4.77;;;;;13.00;96748.00;;;;5032033;28;20311;-70
2023/05/02 00:26:50;;;;;;;5.30;4.70;;;;;13.00;96764.00;;;;5027820;28;20600;-69
2023/05/02 00:29:41;;;;;;;5.63;4.57;;;;;12.90;96747.00;;;;5027125;28;20583;-69
2023/05/02 00:32:30;;;;;;;7.83;5.03;;;;;12.80;96747.00;;;;5037025;28;20213;-71
2023/05/02 00:35:19;;;;;;;5.70;4.77;;;;;12.90;96747.00;;;;5033920;28;20204;-70
2023/05/02 00:38:08;;;;;;;5.63;5.03;;;;;12.80;96742.00;;;;5023602;28;20220;-70
2023/05/02 00:40:57;;;;;;;5.40;4.90;;;;;12.60;96745.00;;;;5037399;28;20215;-70
2023/05/02 00:43:46;;;;;;;7.13;5.27;;;;;12.70;96746.00;;;;5029285;28;20244;-69
2023/05/02 00:46:36;;;;;;;7.27;5.07;;;;;12.80;96747.00;;;;5018392;28;20716;-69
2023/05/02 00:49:25;;;;;;;5.13;4.63;;;;;12.90;96727.00;;;;5035646;28;20220;-69
2023/05/02 00:52:14;;;;;;;7.60;4.73;;;;;12.70;96739.00;;;;5030810;28;20243;-69
2023/05/02 00:55:03;;;;;;;5.63;4.63;;;;;12.30;96734.00;;;;5032171;28;20275;-69
2023/05/02 00:57:53;;;;;;;5.23;4.70;;;;;12.30;96723.00;;;;5024782;28;20214;-69
2023/05/02 01:00:58;;;;;;;6.90;5.17;;;;;12.50;96733.00;;;;5019307;28;20217;-69
2023/05/02 01:04:00;;;;;;;6.77;5.33;;;;;12.20;96730.00;;;;5028514;28;20252;-69
2023/05/02 01:06:58;;;;;;;5.70;5.20;;;;;12.30;96736.00;;;;5021991;28;20292;-69
2023/05/02 01:09:57;;;;;;;5.50;5.00;;;;;12.20;96735.00;;;;5036936;28;20236;-70
2023/05/02 01:12:49;;;;;;;6.97;4.90;;;;;12.40;96734.00;;;;5028610;28;20201;-70
2023/05/02 01:15:39;;;;;;;4.87;4.43;;;;;12.60;96742.00;;;;5039414;28;20201;-70
2023/05/02 01:18:31;;;;;;;5.83;5.33;;;;;12.50;96735.00;;;;5028130;28;20201;-70
2023/05/02 01:21:22;;;;;;;7.93;5.70;;;;;12.60;96729.00;;;;5029597;28;20680;-69
2023/05/02 01:24:14;;;;;;;5.77;4.80;;;;;12.70;96732.00;;;;5042584;28;20240;-69
2023/05/02 01:27:13;;;;;;;5.00;4.33;;;;;12.90;96724.00;;;;5033353;28;20221;-70
2023/05/02 01:30:05;;;;;;;6.87;5.13;;;;;13.00;96722.00;;;;5038479;28;20200;-70
2023/05/02 01:32:56;;;;;;;6.00;5.33;;;;;13.10;96734.00;;;;5035232;28;20204;-69
2023/05/02 01:35:47;;;;;;;5.93;4.67;;;;;13.10;96725.00;;;;5039655;28;20208;-70
2023/05/02 01:38:36;;;;;;;5.23;4.73;;;;;13.10;96729.00;;;;5030365;28;20205;-70
2023/05/02 01:41:27;;;;;;;5.20;4.70;;;;;12.90;96716.00;;;;5022212;28;20197;-70
2023/05/02 01:44:18;;;;;;;5.37;4.87;;;;;12.70;96719.00;;;;5040149;28;20266;-70
2023/05/02 01:47:10;;;;;;;7.20;4.83;;;;;12.60;96719.00;;;;5030986;28;20221;-69
2023/05/02 01:50:00;;;;;;;5.80;5.00;;;;;12.50;96724.00;;;;5039361;28;20938;-70
2023/05/02 01:52:51;;;;;;;4.60;4.20;;;;;12.50;96721.00;;;;5033546;28;20226;-70
2023/05/02 01:55:43;;;;;;;5.17;4.67;;;;;12.30;96715.00;;;;5028674;28;20625;-70
2023/05/02 01:58:33;;;;;;;6.17;5.27;;;;;12.40;96716.00;;;;5027798;28;20249;-70
2023/05/02 02:01:26;;;;;;;5.87;4.97;;;;;12.30;96717.00;;;;5031747;28;20240;-69
2023/05/02 02:04:17;;;;;;;5.67;5.13;;;;;12.40;96712.00;;;;5030728;28;20217;-69
2023/05/02 02:07:08;;;;;;;6.33;4.93;;;;;12.40;96717.00;;;;5027038;28;20225;-70
2023/05/02 02:09:57;;;;;;;6.70;5.87;;;;;12.40;96715.00;;;;5033130;28;20201;-70
2023/05/02 02:12:52;;;;;;;5.57;4.80;;;;;12.50;96721.00;;;;5022021;28;20209;-69
2023/05/02 02:15:42;;;;;;;6.27;5.17;;;;;12.50;96719.00;;;;5031372;28;20193;-70
2023/05/02 02:18:35;;;;;;;7.93;5.10;;;;;12.50;96708.00;;;;5031197;28;20261;-69
2023/05/02 02:21:26;;;;;;;5.03;4.63;;;;;12.50;96712.00;;;;5030099;28;20302;-69
2023/05/02 02:24:17;;;;;;;4.67;4.27;;;;;12.50;96713.00;;;;5030919;28;20276;-69
2023/05/02 02:27:06;;;;;;;5.37;4.87;;;;;12.40;96707.00;;;;5035850;28;20223;-69
2023/05/02 02:29:55;;;;;;;4.57;4.10;;;;;12.20;96704.00;;;;5030426;28;20286;-70
2023/05/02 02:32:44;;;;;;;5.37;4.77;;;;;12.30;96706.00;;;;5028946;28;20703;-69
2023/05/02 02:35:38;;;;;;;7.07;5.60;;;;;12.30;96701.00;;;;5030903;28;20197;-69
2023/05/02 02:38:34;;;;;;;6.40;5.17;;;;;12.20;96705.00;;;;5030032;28;20206;-69
2023/05/02 02:41:26;;;;;;;4.83;4.43;;;;;12.20;96709.00;;;;5031935;28;20220;-69
2023/05/02 02:44:27;;;;;;;6.23;5.50;;;;;12.40;96704.00;;;;5033090;28;20681;-69
2023/05/02 02:47:22;;;;;;;9.93;4.77;;;;;12.50;96711.00;;;;5026773;28;20293;-69
2023/05/02 02:50:16;;;;;;;5.67;5.17;;;;;12.50;96713.00;;;;5033006;28;20202;-69
2023/05/02 02:53:08;;;;;;;5.80;5.30;;;;;12.40;96701.00;;;;5029234;28;20295;-70
2023/05/02 02:56:00;;;;;;;5.37;4.40;;;;;12.50;96709.00;;;;5029368;28;20221;-69
2023/05/02 02:58:57;;;;;;;6.83;4.73;;;;;12.60;96710.00;;;;5026507;28;20213;-69
2023/05/02 03:01:52;;;;;;;6.77;4.93;;;;;12.70;96710.00;;;;5027865;28;20707;-70
2023/05/02 03:04:42;;;;;;;6.47;4.80;;;;;12.70;96711.00;;;;5025992;28;20716;-69
2023/05/02 03:07:31;;;;;;;5.90;5.23;;;;;12.50;96708.00;;;;5026338;28;20240;-69
2023/05/02 03:10:21;;;;;;;5.30;4.80;;;;;12.30;96702.00;;;;5034570;28;20201;-68
2023/05/02 03:13:12;;;;;;;5.03;4.53;;;;;12.20;96702.00;;;;5028204;28;20264;-69
2023/05/02 03:16:29;;;;;;;5.83;5.10;;;;;12.30;96704.00;;;;5032187;28;20287;-69
2023/05/02 03:19:18;;;;;;;5.60;5.10;;;;;12.20;96701.00;;;;5023297;28;20205;-69
2023/05/02 03:22:07;;;;;;;5.63;5.13;;;;;12.30;96711.00;;;;5028017;28;20259;-69
2023/05/02 03:24:56;;;;;;;5.50;4.93;;;;;12.20;96722.00;;;;5027252;28;20221;-67
2023/05/02 03:27:45;;;;;;;5.40;4.83;;;;;12.20;96717.00;;;;5027782;28;20245;-69
2023/05/02 03:30:39;;;;;;;6.50;5.87;;;;;12.30;96722.00;;;;5020064;28;20229;-69
2023/05/02 03:33:28;;;;;;;5.33;4.90;;;;;12.20;96715.00;;;;5027241;28;20213;-68
2023/05/02 03:36:17;;;;;;;7.30;5.50;;;;;12.50;96713.00;;;;5033386;28;20213;-68
2023/05/02 03:39:06;;;;;;;6.73;5.43;;;;;12.60;96722.00;;;;5028848;28;20237;-68
2023/05/02 03:41:55;;;;;;;6.83;5.33;;;;;12.50;96721.00;;;;5024975;28;20695;-68
2023/05/02 03:44:44;;;;;;;5.67;5.17;;;;;12.40;96720.00;;;;5026077;28;20677;-69
2023/05/02 03:47:34;;;;;;;7.47;5.77;;;;;12.60;96728.00;;;;5022899;28;20314;-68
2023/05/02 03:50:23;;;;;;;6.73;5.30;;;;;12.70;96730.00;;;;5028258;28;20251;-69
2023/05/02 03:53:14;;;;;;;6.20;5.60;;;;;12.60;96727.00;;;;5032444;28;20208;-69
2023/05/02 03:56:04;;;;;;;9.07;6.40;;;;;12.30;96725.00;;;;5031467;28;20219;-69
2023/05/02 03:58:53;;;;;;;6.10;5.60;;;;;12.60;96741.00;;;;5027245;28;20629;-69
2023/05/02 04:01:42;;;;;;;8.33;6.37;;;;;12.50;96741.00;;;;5028855;28;20620;-69
2023/05/02 04:04:33;;;;;;;7.33;6.63;;;;;12.30;96734.00;;;;5034537;28;22369;-69
2023/05/02 04:07:24;;;;;;;7.67;5.10;;;;;12.10;96732.00;;;;5027530;28;20225;-70
2023/05/02 04:10:15;;;;;;;6.93;6.13;;;;;12.30;96744.00;;;;5036330;28;20208;-70
2023/05/02 04:13:04;;;;;;;5.50;4.83;;;;;12.40;96750.00;;;;5025391;28;20716;-70
2023/05/02 04:15:53;;;;;;;8.43;5.77;;;;;12.40;96757.00;;;;5030402;28;20236;-69
2023/05/02 04:18:42;;;;;;;8.67;7.30;;;;;12.50;96756.00;;;;5028465;28;20205;-68
2023/05/02 04:21:32;;;;;;;6.43;5.77;;;;;12.50;96763.00;;;;5030025;28;20278;-68
2023/05/02 04:24:22;;;;;;;6.50;5.90;;;;;12.40;96757.00;;;;5029338;28;20276;-68
2023/05/02 04:27:10;;;;;;;6.90;6.20;;;;;12.50;96765.00;;;;5024033;28;20716;-68
2023/05/02 04:30:00;;;;;;;5.97;5.37;;;;;12.60;96766.00;;;;5032841;28;20208;-68
2023/05/02 04:32:49;;;;;;;6.03;5.43;;;;;12.00;96758.00;;;;5025304;28;20232;-67
2023/05/02 04:35:40;;;;;;;6.57;5.63;;;;;12.00;96761.00;;;;5035462;28;20200;-67
2023/05/02 04:38:31;;;;;;;6.27;5.67;;;;;12.20;96772.00;;;;5023947;28;20205;-67
2023/05/02 04:41:20;;;;;;;8.70;6.37;;;;;12.50;96772.00;;;;5025078;28;20209;-69
2023/05/02 04:44:09;;;;;;;10.00;6.03;;;;;12.70;96768.00;;;;5037450;28;20207;-69
2023/05/02 04:46:58;;;;;;;6.57;5.57;;;;;12.70;96775.00;;;;5033645;28;20251;-68
2023/05/02 04:49:47;;;;;;;7.43;6.73;;;;;12.80;96775.00;;;;5037860;28;20557;-69
2023/05/02 04:52:36;;;;;;;7.10;6.40;;;;;13.00;96775.00;;;;5025465;28;20235;-67
2023/05/02 04:55:26;;;;;;;9.97;6.07;;;;;13.10;96779.00;;;;5032986;28;20200;-68
2023/05/02 04:58:15;;;;;;;7.00;6.30;;;;;13.10;96777.00;;;;5030670;28;20695;-68
2023/05/02 05:01:05;;;;;;;7.50;6.03;;;;;12.90;96785.00;;;;5035079;28;20200;-68
2023/05/02 05:03:54;;;;;;;8.60;6.40;;;;;12.90;96772.00;;;;5022128;28;20256;-69
2023/05/02 05:06:43;;;;;;;8.67;6.50;;;;;12.90;96792.00;;;;5034284;28;20233;-68
2023/05/02 05:09:32;;;;;;;6.67;5.67;;;;;13.20;96793.00;;;;5024287;28;20213;-69
2023/05/02 05:12:22;;;;;;;6.47;5.90;;;;;13.20;96798.00;;;;5032872;28;20251;-68
2023/05/02 05:15:11;;;;;;;7.57;6.47;;;;;13.30;96802.00;;;;5030870;28;20209;-68
2023/05/02 05:18:01;;;;;;;6.63;5.90;;;;;13.20;96784.00;;;;5036798;28;20208;-68
2023/05/02 05:20:50;;;;;;;6.57;6.00;;;;;13.00;96808.00;;;;5005933;28;20210;-69
2023/05/02 05:23:44;;;;;;;7.47;6.33;;;;;13.20;96799.00;;;;5009511;28;20205;-68
2023/05/02 05:26:33;;;;;;;7.17;5.93;;;;;13.30;96804.00;;;;4998960;28;20387;-68
2023/05/02 05:29:24;;;;;;;6.87;6.27;;;;;13.20;96797.00;;;;5010683;28;20209;-68
2023/05/02 05:32:13;;;;;;;8.63;5.70;;;;;13.40;96813.00;;;;5006285;28;20216;-68
2023/05/02 05:35:03;;;;;;;6.53;5.67;;;;;13.50;96811.00;;;;5006765;28;21829;-68
2023/05/02 05:37:52;;;;;;;6.97;6.07;;;;;13.30;96808.00;;;;5022162;28;20202;-69
2023/05/02 05:40:41;;;;;;;6.40;5.80;;;;;13.30;96813.00;;;;5029911;28;20213;-68
2023/05/02 05:43:30;;;;;;;6.80;6.17;;;;;13.40;96814.00;;;;5029213;28;20716;-69
2023/05/02 05:46:20;;;;;;;8.17;6.30;;;;;13.50;96814.00;;;;5019076;28;20263;-68
2023/05/02 05:49:11;;;;;;;9.23;6.20;;;;;13.60;96817.00;;;;5025468;28;20288;-68
2023/05/02 05:52:01;;;;;;;8.93;6.20;;;;;13.70;96822.00;;;;5030755;28;20211;-68
2023/05/02 05:54:55;;;;;;;9.57;7.33;;;;;13.90;96818.00;;;;5032483;28;20275;-68
2023/05/02 05:57:44;;;;;;;6.17;5.57;;;;;13.80;96821.00;;;;5035489;28;20533;-69
2023/05/02 06:00:35;;;;;;;10.07;6.47;;;;;13.60;96826.00;;;;5028726;28;20206;-69
2023/05/02 06:03:25;;;;;;;8.33;6.37;;;;;13.80;96839.00;;;;5026251;28;20233;-69
2023/05/02 06:06:14;;;;;;;6.63;6.03;;;;;13.70;96837.00;;;;5028043;28;20599;-69
2023/05/02 06:09:04;;;;;;;11.77;6.93;;;;;13.70;96840.00;;;;5034305;28;20579;-68
2023/05/02 06:11:53;;;;;;;5.93;5.33;;;;;13.90;96840.00;;;;5030842;28;20404;-68
2023/05/02 06:14:42;;;;;;;7.63;5.83;;;;;14.10;96850.00;;;;5039615;28;20742;-69
2023/05/02 06:17:31;;;;;;;7.50;6.80;;;;;13.90;96856.00;;;;5032266;28;20236;-68
2023/05/02 06:20:21;;;;;;;8.13;6.00;;;;;13.70;96860.00;;;;5031102;28;20214;-67
2023/05/02 06:23:10;;;;;;;7.83;6.63;;;;;13.60;96855.00;;;;5030305;28;20758;-68
2023/05/02 06:26:00;;;;;;;6.40;5.80;;;;;14.00;96859.00;;;;5028625;28;20291;-68
2023/05/02 06:28:49;;;;;;;7.00;6.40;;;;;14.10;96865.00;;;;5032006;28;20260;-68
2023/05/02 06:31:38;;;;;;;6.27;5.70;;;;;14.00;96870.00;;;;5026985;28;20671;-68
2023/05/02 06:34:27;;;;;;;7.50;6.27;;;;;14.20;96869.00;;;;5030237;28;20639;-68
2023/05/02 06:37:17;;;;;;;8.00;6.30;;;;;13.90;96870.00;;;;5028416;28;20704;-68
2023/05/02 06:40:08;;;;;;;7.87;6.30;;;;;14.10;96880.00;;;;5035854;28;20240;-67
2023/05/02 06:42:57;;;;;;;8.93;6.00;;;;;13.90;96871.00;;;;5037179;28;20198;-68
2023/05/02 06:45:46;;;;;;;8.97;6.37;;;;;13.90;96884.00;;;;5029855;28;20713;-68
2023/05/02 06:48:36;;;;;;;7.47;6.23;;;;;14.00;96886.00;;;;5033436;28;20680;-68
2023/05/02 06:51:26;;;;;;;8.83;6.70;;;;;14.10;96886.00;;;;5022640;28;20209;-68
2023/05/02 06:54:17;;;;;;;9.30;6.23;;;;;14.00;96882.00;;;;5019617;28;20256;-68
2023/05/02 06:57:06;;;;;;;7.87;7.07;;;;;14.20;96890.00;;;;5033657;28;20274;-69
2023/05/02 06:59:55;;;;;;;7.93;7.07;;;;;14.30;96894.00;;;;5030716;28;20202;-68
2023/05/02 07:02:45;;;;;;;8.13;5.80;;;;;14.30;96899.00;;;;5031537;28;20201;-68
2023/05/02 07:05:34;;;;;;;7.23;6.33;;;;;14.10;96900.00;;;;5038019;28;20580;-68
2023/05/02 07:08:25;;;;;;;9.20;6.87;;;;;14.20;96892.00;;;;5028986;28;20237;-69
2023/05/02 07:11:15;;;;;;;8.37;6.57;;;;;14.30;96891.00;;;;5040326;28;20219;-68
2023/05/02 07:14:04;;;;;;;6.83;6.13;;;;;13.80;96886.00;;;;5029390;28;20584;-68
2023/05/02 07:16:54;;;;;;;6.67;5.63;;;;;14.10;96891.00;;;;5037087;28;20213;-68
2023/05/02 07:19:43;;;;;;;9.50;7.03;;;;;14.20;96890.00;;;;5041774;28;20201;-68
2023/05/02 07:22:33;;;;;;;8.03;5.93;;;;;14.40;96887.00;;;;5029560;28;20280;-68
2023/05/02 07:25:22;;;;;;;7.13;6.30;;;;;14.60;96888.00;;;;5029818;28;20251;-68
2023/05/02 07:28:12;;;;;;;6.67;6.07;;;;;14.70;96882.00;;;;5039735;28;20225;-68
2023/05/02 07:31:02;;;;;;;7.37;6.53;;;;;14.90;96878.00;;;;5025806;28;20302;-68
2023/05/02 07:33:51;;;;;;;8.80;6.23;;;;;15.00;96880.00;;;;5027325;28;20205;-68
2023/05/02 07:36:40;;;;;;;7.80;6.77;;;;;15.10;96870.00;;;;5029213;28;20226;-68
2023/05/02 07:39:29;;;;;;;9.87;6.37;;;;;15.30;96877.00;;;;5033809;28;20211;-68
2023/05/02 07:42:18;;;;;;;8.27;7.17;;;;;15.50;96878.00;;;;5034100;28;20254;-68
2023/05/02 07:45:09;;;;;;;6.87;6.17;;;;;15.40;96884.00;;;;5033435;28;20205;-69
2023/05/02 07:47:58;;;;;;;7.67;6.90;;;;;15.40;96885.00;;;;5026561;28;20308;-70
2023/05/02 07:50:47;;;;;;;7.10;6.40;;;;;15.40;96891.00;;;;5021405;28;20194;-69
2023/05/02 07:53:37;;;;;;;8.47;6.50;;;;;15.40;96905.00;;;;5026270;28;20208;-69
2023/05/02 07:56:26;;;;;;;6.83;6.13;;;;;15.30;96904.00;;;;5026719;28;20279;-69
2023/05/02 07:59:15;;;;;;;6.20;5.33;;;;;15.40;96914.00;;;;5022482;28;20344;-69
2023/05/02 08:02:05;;;;;;;6.33;5.50;;;;;15.50;96914.00;;;;5023465;28;20747;-69
2023/05/02 08:04:54;;;;;;;9.33;5.20;;;;;15.70;96917.00;;;;5029033;28;20216;-70
2023/05/02 08:07:43;;;;;;;7.53;5.77;;;;;15.90;96913.00;;;;5021130;28;20312;-68
2023/05/02 08:10:32;;;;;;;7.67;6.37;;;;;15.90;96912.00;;;;5021600;28;20201;-68
2023/05/02 08:13:21;;;;;;;10.63;5.83;;;;;15.80;96909.00;;;;5023112;28;20197;-68
2023/05/02 08:16:10;;;;;;;5.77;5.20;;;;;16.00;96902.00;;;;5015476;28;20252;-69
2023/05/02 08:19:01;;;;;;;6.73;6.10;;;;;16.40;96905.00;;;;5026183;28;20225;-69
2023/05/02 08:21:50;;;;;;;7.20;5.07;;;;;16.20;96911.00;;;;5023689;28;20677;-68
2023/05/02 08:24:39;;;;;;;5.93;5.20;;;;;16.50;96897.00;;;;5022516;28;20224;-68
2023/05/02 08:27:28;;;;;;;6.57;5.03;;;;;16.60;96898.00;;;;5020548;28;20269;-68
2023/05/02 08:30:17;;;;;;;5.97;5.00;;;;;16.70;96908.00;;;;5026656;28;20620;-68
2023/05/02 08:33:06;;;;;;;5.50;4.97;;;;;16.50;96915.00;;;;5028662;28;20259;-68
2023/05/02 08:35:57;;;;;;;8.97;5.00;;;;;16.70;96921.00;;;;5024571;28;20271;-68
2023/05/02 08:38:46;;;;;;;7.03;4.80;;;;;16.90;96917.00;;;;5024449;28;20197;-68
2023/05/02 08:41:35;;;;;;;4.70;4.23;;;;;17.00;96925.00;;;;5021864;28;20205;-69
2023/05/02 08:44:24;;;;;;;4.90;4.50;;;;;17.00;96929.00;;;;5023974;28;20287;-68
2023/05/02 08:47:14;;;;;;;4.77;4.27;;;;;17.20;96936.00;;;;5033513;28;20277;-68
2023/05/02 08:50:05;;;;;;;7.00;4.57;;;;;17.40;96935.00;;;;5023058;28;20209;-68
2023/05/02 08:52:57;;;;;;;4.73;4.13;;;;;17.30;96936.00;;;;5026559;28;20209;-68
2023/05/02 08:55:46;;;;;;;5.70;3.93;;;;;17.30;96951.00;;;;5014317;28;20229;-68
2023/05/02 08:58:36;;;;;;;3.77;3.47;;;;;17.20;96940.00;;;;5024444;28;20197;-68
2023/05/02 09:01:28;;;;;;;4.80;4.37;;;;;17.30;96951.00;;;;5012713;28;20213;-68
2023/05/02 09:04:19;;;;;;;4.57;4.17;;;;;17.40;96941.00;;;;5015333;28;20206;-68
2023/05/02 09:07:09;;;;;;;4.83;4.40;;;;;17.60;96947.00;;;;5017647;28;20872;-68
2023/05/02 09:09:59;;;;;;;4.20;3.90;;;;;18.00;96930.00;;;;5027304;28;20198;-68
2023/05/02 09:12:48;;;;;;;4.80;4.27;;;;;18.20;96940.00;;;;5035035;28;20205;-68
2023/05/02 09:15:37;;;;;;;4.87;3.97;;;;;18.50;96931.00;;;;5028419;28;20205;-68
2023/05/02 09:18:30;;;;;;;3.83;3.53;;;;;18.80;96932.00;;;;5034847;28;20202;-68
2023/05/02 09:21:20;;;;;;;6.13;3.83;;;;;18.90;96934.00;;;;5031218;28;20273;-68
2023/05/02 09:24:17;;;;;;;3.53;3.23;;;;;18.80;96936.00;;;;5032427;28;20201;-68
2023/05/02 09:27:07;;;;;;;4.07;3.57;;;;;18.80;96932.00;;;;5032450;28;20234;-68
2023/05/02 09:30:19;;;;;;;3.53;3.23;;;;;18.70;96929.00;;;;5033716;28;20362;-68
2023/05/02 09:33:08;;;;;;;3.10;2.90;;;;;18.70;96929.00;;;;5033950;28;20201;-66
2023/05/02 09:36:00;;;;;;;3.83;3.20;;;;;18.50;96929.00;;;;5031011;28;20233;-66
2023/05/02 09:38:50;;;;;;;3.40;3.10;;;;;19.00;96939.00;;;;5032906;28;20205;-67
2023/05/02 09:41:42;;;;;;;5.93;3.03;;;;;18.70;96940.00;;;;5029308;28;20624;-68
2023/05/02 09:44:39;;;;;;;3.40;2.97;;;;;18.40;96948.00;;;;5030917;28;20217;-68
2023/05/02 09:47:28;;;;;;;2.80;2.40;;;;;17.90;96953.00;;;;5028291;28;20244;-68
2023/05/02 09:50:37;;;;;;;2.97;2.77;;;;;17.70;96952.00;;;;5031366;28;20197;-68
2023/05/02 09:53:27;;;;;;;2.43;2.23;;;;;17.90;96957.00;;;;5034121;28;20217;-68
2023/05/02 09:56:16;;;;;;;3.13;2.20;;;;;18.20;96960.00;;;;5030004;28;20302;-68
2023/05/02 09:59:13;;;;;;;2.70;2.47;;;;;18.30;96964.00;;;;5033337;28;20205;-68
2023/05/02 10:02:09;;;;;;;2.53;2.30;;;;;18.10;96966.00;;;;5030124;28;20598;-68
2023/05/02 10:04:59;;;;;;;2.10;2.00;;;;;18.00;96951.00;;;;5029438;28;20700;-68
2023/05/02 10:07:48;;;;;;;1.70;1.60;;;;;18.00;96963.00;;;;5025288;28;20221;-71
2023/05/02 10:10:38;;;;;;;2.50;2.30;;;;;18.20;96947.00;;;;5025350;28;20209;-67
2023/05/02 10:13:31;;;;;;;2.00;1.87;;;;;18.40;96937.00;;;;5027132;28;20609;-67
2023/05/02 10:16:26;;;;;;;2.00;1.87;;;;;18.50;96937.00;;;;5026512;28;20278;-67
2023/05/02 10:19:20;;;;;;;2.23;2.03;;;;;18.90;96941.00;;;;5026739;28;20201;-68
2023/05/02 10:22:10;;;;;;;1.83;1.67;;;;;18.90;96947.00;;;;5027933;28;20208;-69
2023/05/02 10:24:59;;;;;;;1.70;1.60;;;;;18.60;96939.00;;;;5029359;28;20280;-68
2023/05/02 10:27:49;;;;;;;2.50;2.27;;;;;18.30;96939.00;;;;5030210;28;20221;-68
2023/05/02 10:30:39;;;;;;;3.53;2.00;;;;;17.60;96935.00;;;;5029079;28;20556;-69
2023/05/02 10:33:30;;;;;;;1.60;1.40;;;;;18.10;96935.00;;;;5023618;28;20210;-70
2023/05/02 10:36:23;;;;;;;1.47;1.37;;;;;18.50;96936.00;;;;5020574;28;20222;-69
2023/05/02 10:39:12;;;;;;;1.60;1.50;;;;;18.60;96939.00;;;;5025834;28;20300;-67
2023/05/02 10:42:02;;;;;;;1.60;1.50;;;;;18.50;96946.00;;;;5028201;28;20209;-68
2023/05/02 10:44:51;;;;;;;1.77;1.67;;;;;18.50;96943.00;;;;5024424;28;20202;-69
2023/05/02 10:47:40;;;;;;;1.73;1.63;;;;;18.50;96950.00;;;;5028859;28;20232;-68
2023/05/02 10:50:45;;;;;;;1.57;1.47;;;;;18.30;96958.00;;;;5033594;28;20207;-69
2023/05/02 10:53:37;;;;;;;1.40;1.30;;;;;17.90;96951.00;;;;5029195;28;20827;-69
2023/05/02 10:56:26;;;;;;;1.90;1.63;;;;;18.00;96952.00;;;;5025285;28;20225;-70
2023/05/02 10:59:30;;;;;;;1.70;1.23;;;;;17.80;96949.00;;;;5023615;28;20602;-70
2023/05/02 11:02:47;;;;;;;1.60;1.50;;;;;18.10;96948.00;;;;5022143;28;20247;-69
2023/05/02 11:06:05;;;;;;;1.50;1.33;;;;;18.10;96947.00;;;;5027215;28;20681;-70
2023/05/02 11:09:33;;;;;;;1.30;1.20;;;;;18.40;96951.00;;;;5027624;28;20239;-69
2023/05/02 11:12:49;;;;;;;1.43;1.33;;;;;18.30;96961.00;;;;5025791;28;20205;-69
2023/05/02 11:16:00;;;;;;;1.43;1.30;;;;;18.00;96959.00;;;;4989432;28;20290;-69
2023/05/02 11:19:01;;;;;;;1.30;1.20;;;;;18.00;96964.00;;;;5025903;28;20198;-69
2023/05/02 11:21:52;;;;;;;2.30;1.70;;;;;17.80;96954.00;;;;5023044;28;20289;-70
2023/05/02 11:24:43;;;;;;;1.00;1.00;;;;;17.30;96961.00;;;;5023774;28;20201;-69
2023/05/02 11:27:39;;;;;;;1.40;1.30;;;;;17.50;96969.00;;;;5027197;28;20233;-68
2023/05/02 11:30:38;;;;;;;1.10;1.00;;;;;17.40;96968.00;;;;5025803;28;20240;-70
2023/05/02 11:33:29;;;;;;;1.10;1.00;;;;;17.40;96971.00;;;;5032386;28;20216;-68
2023/05/02 11:36:29;;;;;;;1.30;1.20;;;;;17.50;96976.00;;;;5024505;28;20225;-68
2023/05/02 11:39:22;;;;;;;2.60;1.60;;;;;17.40;96971.00;;;;5025696;28;20201;-68
2023/05/02 11:42:28;;;;;;;1.17;1.07;;;;;17.30;96973.00;;;;5025917;28;20232;-68
2023/05/02 11:45:19;;;;;;;2.73;1.23;;;;;17.00;96978.00;;;;5026355;28;20212;-68
2023/05/02 11:48:10;;;;;;;2.93;0.97;;;;;17.20;96985.00;;;;5020689;28;20203;-67
2023/05/02 11:51:05;;;;;;;1.20;1.10;;;;;17.10;96975.00;;;;5017684;28;20292;-68
2023/05/02 11:53:55;;;;;;;1.20;1.10;;;;;17.10;96977.00;;;;5021828;28;20206;-68
2023/05/02 11:56:44;;;;;;;1.20;1.10;;;;;16.50;96982.00;;;;5012906;28;20237;-69
2023/05/02 11:59:50;;;;;;;1.93;1.53;;;;;16.90;96985.00;;;;5011097;28;20202;-69
2023/05/02 12:02:40;;;;;;;5.23;1.17;;;;;16.60;96988.00;;;;5013801;28;20681;-69
2023/05/02 12:05:30;;;;;;;1.07;0.80;;;;;16.40;97001.00;;;;5019279;28;20206;-69
2023/05/02 12:08:23;;;;;;;1.03;0.93;;;;;16.60;97003.00;;;;5020206;28;20538;-68
2023/05/02 12:11:15;;;;;;;1.67;1.37;;;;;16.40;96999.00;;;;5021361;28;20577;-69
2023/05/02 12:14:05;;;;;;;4.57;1.30;;;;;16.40;97016.00;;;;5021607;28;20201;-69
2023/05/02 12:16:56;;;;;;;1.10;1.00;;;;;16.40;97009.00;;;;5020726;28;20225;-69
2023/05/02 12:19:45;;;;;;;1.47;1.17;;;;;16.40;97015.00;;;;5021222;28;20197;-68
2023/05/02 12:22:34;;;;;;;4.43;1.20;;;;;16.50;96997.00;;;;5015122;28;20332;-69
2023/05/02 12:25:23;;;;;;;0.97;0.97;;;;;16.60;97006.00;;;;5021998;28;20213;-69
2023/05/02 12:28:12;;;;;;;0.70;0.70;;;;;16.70;97011.00;;;;5018774;28;20198;-69
2023/05/02 12:31:11;;;;;;;1.00;1.00;;;;;16.90;97001.00;;;;5022022;28;20951;-68
2023/05/02 12:34:01;;;;;;;1.50;1.10;;;;;16.80;97002.00;;;;5017079;28;20205;-69
2023/05/02 12:36:51;;;;;;;0.80;0.77;;;;;16.70;97001.00;;;;5021337;28;20251;-70
2023/05/02 12:39:41;;;;;;;0.70;0.70;;;;;16.30;97002.00;;;;5011829;28;20197;-71
2023/05/02 12:42:33;;;;;;;0.70;0.70;;;;;16.10;96991.00;;;;5019313;28;20217;-69
2023/05/02 12:45:22;;;;;;;2.83;0.87;;;;;16.50;97009.00;;;;5013392;28;20206;-69
2023/05/02 12:48:25;;;;;;;0.80;0.60;;;;;16.40;97018.00;;;;5018457;28;20504;-69
2023/05/02 12:51:24;;;;;;;0.60;0.60;;;;;16.50;97009.00;;;;5020047;28;20230;-69
2023/05/02 12:54:21;;;;;;;2.10;0.87;;;;;16.40;97014.00;;;;5020473;28;20589;-70
2023/05/02 12:57:10;;;;;;;1.40;0.80;;;;;16.50;97023.00;;;;5028324;28;20225;-69
2023/05/02 12:59:59;;;;;;;0.70;0.70;;;;;16.60;97027.00;;;;5037169;28;20208;-70
2023/05/02 13:02:48;;;;;;;1.80;0.70;;;;;16.70;97022.00;;;;5026210;28;20204;-69
2023/05/02 13:05:37;;;;;;;1.00;0.90;;;;;16.40;97021.00;;;;5030445;28;20676;-70
2023/05/02 13:08:28;;;;;;;0.50;0.50;;;;;16.30;97033.00;;;;5030414;28;20209;-70
2023/05/02 13:11:18;;;;;;;0.90;0.57;;;;;16.20;97028.00;;;;5024893;28;20260;-71
2023/05/02 13:14:07;;;;;;;1.00;0.83;;;;;16.10;97023.00;;;;5026913;28;20205;-70
2023/05/02 13:16:56;;;;;;;2.10;2.00;;;;;16.00;97025.00;;;;5025175;28;20363;-70
2023/05/02 13:19:45;;;;;;;1.83;1.37;;;;;15.80;97033.00;;;;5025340;28;20197;-70
2023/05/02 13:22:38;;;;;;;0.97;0.90;;;;;15.90;97033.00;;;;5033389;28;20198;-70
2023/05/02 13:25:29;;;;;;;2.43;1.10;;;;;15.80;97037.00;;;;5030352;28;20227;-70
2023/05/02 13:28:18;;;;;;;0.83;0.80;;;;;15.50;97033.00;;;;5016700;28;20618;-69
2023/05/02 13:31:07;;;;;;;0.60;0.60;;;;;15.50;97030.00;;;;5029901;28;20280;-69
2023/05/02 13:33:56;;;;;;;1.37;1.03;;;;;15.10;97043.00;;;;5035987;28;20201;-69
2023/05/02 13:36:45;;;;;;;0.60;0.60;;;;;15.20;97042.00;;;;5017963;28;20589;-69
2023/05/02 13:39:34;;;;;;;1.03;0.83;;;;;15.10;97044.00;;;;5034038;28;20201;-69
2023/05/02 13:42:25;;;;;;;1.77;0.80;;;;;15.20;97049.00;;;;5028427;28;20220;-69
2023/05/02 13:45:16;;;;;;;0.83;0.63;;;;;15.00;97059.00;;;;5028414;28;20205;-69
2023/05/02 13:48:05;;;;;;;0.80;0.80;;;;;15.20;97061.00;;;;5033640;28;20201;-70
2023/05/02 13:50:54;;;;;;;2.63;0.80;;;;;14.90;97052.00;;;;5020014;28;20226;-69
2023/05/02 13:53:43;;;;;;;2.27;1.00;;;;;14.50;97055.00;;;;5035852;28;20201;-69
2023/05/02 13:56:33;;;;;;;2.47;1.00;;;;;14.90;97065.00;;;;5027681;28;20605;-69
2023/05/02 13:59:23;;;;;;;1.30;0.87;;;;;14.90;97049.00;;;;5029915;28;20217;-69
2023/05/02 14:02:12;;;;;;;1.00;0.90;;;;;14.70;97042.00;;;;5017638;28;20251;-69
2023/05/02 14:05:01;;;;;;;0.90;0.90;;;;;15.20;97048.00;;;;5018347;28;20213;-68
2023/05/02 14:07:50;;;;;;;1.00;0.90;;;;;15.20;97043.00;;;;5040776;28;20286;-69
2023/05/02 14:10:39;;;;;;;1.27;1.00;;;;;15.20;97049.00;;;;5029132;28;20265;-68
2023/05/02 14:13:28;;;;;;;1.50;0.93;;;;;15.20;97056.00;;;;5033959;28;20213;-69
2023/05/02 14:16:18;;;;;;;0.80;0.60;;;;;15.30;97059.00;;;;5031335;28;20322;-69
2023/05/02 14:19:07;;;;;;;0.87;0.83;;;;;15.40;97055.00;;;;5031662;28;20597;-69